Norton, Ohio
Current Conditions -  °F | °C
As of 1:54 AM on Friday 31 Oct 2014 (Local Time) from KAKR Reporting Station
Overcast Overcast  
Wind Chill: 45°   Ceiling: 4600
Heat Index: 45°   Visibility: 10mi
Dew Point: 36°   Wind: 0mph
Humidity: 71%   Direction: NA
Pressure: 30.01"   Gusts: NA
Location:  41.03°N, 81.65°W
Report Text: KAKR 310554Z AUTO 00000KT 10SM OVC046 07/02 A3001 RMK AO2 SLP164 T00720022 10083 20072 56012
Loading
Personal Weather Stations






























Interactive Weather Map
Tropical Storm Tracking
New forecast layout! Learn more

10-Day Weather Forecast

Advertisements
Track Severe Weather on mobile